sensor_id;sensor_type;location;lat;lon;timestamp;P1;durP1;ratioP1;P2;durP2;ratioP2
42702;SDS011;28341;52.064;4.920;2023-02-07T00:02:03;21.17;;;8.75;;
42702;SDS011;28341;52.064;4.920;2023-02-07T00:04:07;22.05;;;8.98;;
42702;SDS011;28341;52.064;4.920;2023-02-07T00:06:12;22.88;;;9.73;;
42702;SDS011;28341;52.064;4.920;2023-02-07T00:08:19;35.20;;;10.05;;
42702;SDS011;28341;52.064;4.920;2023-02-07T00:10:24;30.10;;;11.30;;
42702;SDS011;28341;52.064;4.920;2023-02-07T00:12:28;26.48;;;11.27;;
42702;SDS011;28341;52.064;4.920;2023-02-07T00:14:33;26.73;;;10.43;;
42702;SDS011;28341;52.064;4.920;2023-02-07T00:16:37;24.85;;;9.80;;
42702;SDS011;28341;52.064;4.920;2023-02-07T00:18:45;24.17;;;8.88;;
42702;SDS011;28341;52.064;4.920;2023-02-07T00:20:56;19.67;;;9.05;;
42702;SDS011;28341;52.064;4.920;2023-02-07T00:23:01;22.15;;;10.02;;
42702;SDS011;28341;52.064;4.920;2023-02-07T00:25:06;20.95;;;8.75;;
42702;SDS011;28341;52.064;4.920;2023-02-07T00:27:11;23.40;;;10.38;;
42702;SDS011;28341;52.064;4.920;2023-02-07T00:29:15;18.75;;;9.50;;
42702;SDS011;28341;52.064;4.920;2023-02-07T00:31:20;23.08;;;10.20;;
42702;SDS011;28341;52.064;4.920;2023-02-07T00:33:26;21.13;;;9.60;;
42702;SDS011;28341;52.064;4.920;2023-02-07T00:35:33;21.05;;;10.43;;
42702;SDS011;28341;52.064;4.920;2023-02-07T00:37:39;21.17;;;10.27;;
42702;SDS011;28341;52.064;4.920;2023-02-07T00:39:44;41.05;;;14.43;;
42702;SDS011;28341;52.064;4.920;2023-02-07T00:41:48;20.30;;;11.13;;
42702;SDS011;28341;52.064;4.920;2023-02-07T00:43:53;22.33;;;11.90;;
42702;SDS011;28341;52.064;4.920;2023-02-07T00:45:58;23.63;;;12.57;;
42702;SDS011;28341;52.064;4.920;2023-02-07T00:48:05;27.15;;;10.68;;
42702;SDS011;28341;52.064;4.920;2023-02-07T00:50:09;21.95;;;10.70;;
42702;SDS011;28341;52.064;4.920;2023-02-07T00:52:16;21.00;;;10.70;;
42702;SDS011;28341;52.064;4.920;2023-02-07T00:54:21;22.67;;;10.38;;
42702;SDS011;28341;52.064;4.920;2023-02-07T00:56:27;21.13;;;9.32;;
42702;SDS011;28341;52.064;4.920;2023-02-07T00:58:32;18.05;;;7.85;;
42702;SDS011;28341;52.064;4.920;2023-02-07T01:00:37;13.85;;;7.50;;
42702;SDS011;28341;52.064;4.920;2023-02-07T01:02:42;15.73;;;6.88;;
42702;SDS011;28341;52.064;4.920;2023-02-07T01:04:46;23.00;;;6.82;;
42702;SDS011;28341;52.064;4.920;2023-02-07T01:06:51;37.83;;;6.72;;
42702;SDS011;28341;52.064;4.920;2023-02-07T01:09:00;66.85;;;7.93;;
42702;SDS011;28341;52.064;4.920;2023-02-07T01:11:06;7.60;;;6.03;;
42702;SDS011;28341;52.064;4.920;2023-02-07T01:13:13;11.13;;;5.93;;
42702;SDS011;28341;52.064;4.920;2023-02-07T01:15:18;7.68;;;6.35;;
42702;SDS011;28341;52.064;4.920;2023-02-07T01:17:23;5.97;;;5.38;;
42702;SDS011;28341;52.064;4.920;2023-02-07T01:19:29;7.15;;;5.45;;
42702;SDS011;28341;52.064;4.920;2023-02-07T01:21:34;7.05;;;5.13;;
42702;SDS011;28341;52.064;4.920;2023-02-07T01:23:39;5.38;;;4.85;;
42702;SDS011;28341;52.064;4.920;2023-02-07T01:25:46;8.48;;;5.60;;
42702;SDS011;28341;52.064;4.920;2023-02-07T01:27:51;9.35;;;5.88;;
42702;SDS011;28341;52.064;4.920;2023-02-07T01:29:56;4.82;;;4.32;;
42702;SDS011;28341;52.064;4.920;2023-02-07T01:32:01;9.02;;;5.68;;
42702;SDS011;28341;52.064;4.920;2023-02-07T01:34:06;6.00;;;4.93;;
42702;SDS011;28341;52.064;4.920;2023-02-07T01:36:13;10.10;;;5.43;;
42702;SDS011;28341;52.064;4.920;2023-02-07T01:38:18;7.37;;;5.30;;
42702;SDS011;28341;52.064;4.920;2023-02-07T01:40:23;11.20;;;6.37;;
42702;SDS011;28341;52.064;4.920;2023-02-07T01:42:31;8.87;;;5.77;;
42702;SDS011;28341;52.064;4.920;2023-02-07T01:47:22;11.87;;;5.93;;
42702;SDS011;28341;52.064;4.920;2023-02-07T01:49:28;13.90;;;6.67;;
42702;SDS011;28341;52.064;4.920;2023-02-07T01:51:36;12.10;;;6.67;;
42702;SDS011;28341;52.064;4.920;2023-02-07T01:53:43;28.13;;;8.23;;
42702;SDS011;28341;52.064;4.920;2023-02-07T01:55:47;20.47;;;7.90;;
42702;SDS011;28341;52.064;4.920;2023-02-07T01:57:57;18.90;;;8.50;;
42702;SDS011;28341;52.064;4.920;2023-02-07T02:00:03;22.90;;;8.35;;
42702;SDS011;28341;52.064;4.920;2023-02-07T02:02:15;15.55;;;7.78;;
42702;SDS011;28341;52.064;4.920;2023-02-07T02:04:22;17.70;;;6.25;;
42702;SDS011;28341;52.064;4.920;2023-02-07T02:06:28;9.15;;;6.30;;
42702;SDS011;28341;52.064;4.920;2023-02-07T02:08:34;17.30;;;7.43;;
42702;SDS011;28341;52.064;4.920;2023-02-07T02:10:48;20.10;;;8.45;;
42702;SDS011;28341;52.064;4.920;2023-02-07T02:13:09;20.23;;;7.93;;
42702;SDS011;28341;52.064;4.920;2023-02-07T02:15:26;24.17;;;9.10;;
42702;SDS011;28341;52.064;4.920;2023-02-07T02:17:40;27.77;;;9.47;;
42702;SDS011;28341;52.064;4.920;2023-02-07T02:20:17;22.97;;;9.13;;
42702;SDS011;28341;52.064;4.920;2023-02-07T02:22:58;19.07;;;7.93;;
42702;SDS011;28341;52.064;4.920;2023-02-07T02:33:28;19.33;;;9.13;;
42702;SDS011;28341;52.064;4.920;2023-02-07T02:35:44;23.47;;;9.43;;
42702;SDS011;28341;52.064;4.920;2023-02-07T02:37:55;23.08;;;9.32;;
42702;SDS011;28341;52.064;4.920;2023-02-07T02:40:06;24.60;;;9.43;;
42702;SDS011;28341;52.064;4.920;2023-02-07T02:42:15;23.30;;;10.03;;
42702;SDS011;28341;52.064;4.920;2023-02-07T02:44:26;29.37;;;10.47;;
42702;SDS011;28341;52.064;4.920;2023-02-07T02:46:34;16.38;;;9.38;;
42702;SDS011;28341;52.064;4.920;2023-02-07T02:48:44;19.37;;;9.33;;
42702;SDS011;28341;52.064;4.920;2023-02-07T02:50:48;22.05;;;9.77;;
42702;SDS011;28341;52.064;4.920;2023-02-07T02:52:53;34.30;;;9.43;;
42702;SDS011;28341;52.064;4.920;2023-02-07T02:55:00;22.35;;;10.63;;
42702;SDS011;28341;52.064;4.920;2023-02-07T02:57:12;16.30;;;9.40;;
42702;SDS011;28341;52.064;4.920;2023-02-07T02:59:38;20.63;;;10.50;;
42702;SDS011;28341;52.064;4.920;2023-02-07T03:02:00;54.93;;;9.57;;
42702;SDS011;28341;52.064;4.920;2023-02-07T03:07:04;17.53;;;9.67;;
42702;SDS011;28341;52.064;4.920;2023-02-07T03:09:20;13.73;;;8.53;;
42702;SDS011;28341;52.064;4.920;2023-02-07T03:11:34;16.67;;;8.67;;
42702;SDS011;28341;52.064;4.920;2023-02-07T03:13:50;27.87;;;9.60;;
42702;SDS011;28341;52.064;4.920;2023-02-07T03:16:03;16.03;;;8.63;;
42702;SDS011;28341;52.064;4.920;2023-02-07T03:18:16;20.87;;;11.03;;
42702;SDS011;28341;52.064;4.920;2023-02-07T03:20:27;20.37;;;10.47;;
42702;SDS011;28341;52.064;4.920;2023-02-07T03:22:34;16.67;;;10.33;;
42702;SDS011;28341;52.064;4.920;2023-02-07T03:24:40;17.45;;;11.15;;
42702;SDS011;28341;52.064;4.920;2023-02-07T03:26:49;20.93;;;8.43;;
42702;SDS011;28341;52.064;4.920;2023-02-07T03:28:55;33.63;;;8.67;;
42702;SDS011;28341;52.064;4.920;2023-02-07T03:31:01;18.47;;;8.90;;
42702;SDS011;28341;52.064;4.920;2023-02-07T03:33:09;12.00;;;7.10;;
42702;SDS011;28341;52.064;4.920;2023-02-07T03:35:15;14.13;;;6.77;;
42702;SDS011;28341;52.064;4.920;2023-02-07T03:37:28;16.43;;;7.00;;
42702;SDS011;28341;52.064;4.920;2023-02-07T03:39:35;10.87;;;7.43;;
42702;SDS011;28341;52.064;4.920;2023-02-07T03:41:40;24.13;;;9.73;;
42702;SDS011;28341;52.064;4.920;2023-02-07T03:43:48;33.37;;;11.50;;
42702;SDS011;28341;52.064;4.920;2023-02-07T03:45:53;38.70;;;11.73;;
42702;SDS011;28341;52.064;4.920;2023-02-07T03:47:58;29.83;;;11.83;;
42702;SDS011;28341;52.064;4.920;2023-02-07T03:50:03;22.90;;;11.43;;
42702;SDS011;28341;52.064;4.920;2023-02-07T03:52:08;19.00;;;10.47;;
42702;SDS011;28341;52.064;4.920;2023-02-07T03:54:15;35.37;;;10.80;;
42702;SDS011;28341;52.064;4.920;2023-02-07T03:56:20;123.93;;;12.60;;
42702;SDS011;28341;52.064;4.920;2023-02-07T03:58:24;28.50;;;10.50;;
42702;SDS011;28341;52.064;4.920;2023-02-07T04:00:29;54.23;;;12.10;;
42702;SDS011;28341;52.064;4.920;2023-02-07T04:02:33;15.90;;;11.10;;
42702;SDS011;28341;52.064;4.920;2023-02-07T04:04:38;19.17;;;11.57;;
42702;SDS011;28341;52.064;4.920;2023-02-07T04:06:43;16.30;;;9.27;;
42702;SDS011;28341;52.064;4.920;2023-02-07T04:08:47;15.87;;;11.27;;
42702;SDS011;28341;52.064;4.920;2023-02-07T04:11:01;20.47;;;10.37;;
42702;SDS011;28341;52.064;4.920;2023-02-07T04:13:06;20.67;;;10.57;;
42702;SDS011;28341;52.064;4.920;2023-02-07T04:15:11;19.60;;;12.17;;
42702;SDS011;28341;52.064;4.920;2023-02-07T04:17:16;24.17;;;13.63;;
42702;SDS011;28341;52.064;4.920;2023-02-07T04:19:20;28.23;;;13.13;;
42702;SDS011;28341;52.064;4.920;2023-02-07T04:21:25;38.93;;;13.60;;
42702;SDS011;28341;52.064;4.920;2023-02-07T04:23:29;21.23;;;11.87;;
42702;SDS011;28341;52.064;4.920;2023-02-07T04:25:34;23.33;;;14.60;;
42702;SDS011;28341;52.064;4.920;2023-02-07T04:27:41;33.93;;;15.23;;
42702;SDS011;28341;52.064;4.920;2023-02-07T04:29:46;25.13;;;13.97;;
42702;SDS011;28341;52.064;4.920;2023-02-07T04:31:50;29.77;;;15.20;;
42702;SDS011;28341;52.064;4.920;2023-02-07T04:33:55;30.23;;;16.07;;
42702;SDS011;28341;52.064;4.920;2023-02-07T04:36:00;32.23;;;16.43;;
42702;SDS011;28341;52.064;4.920;2023-02-07T04:38:06;34.20;;;16.13;;
42702;SDS011;28341;52.064;4.920;2023-02-07T04:40:11;28.50;;;15.47;;
42702;SDS011;28341;52.064;4.920;2023-02-07T04:42:15;23.00;;;15.13;;
42702;SDS011;28341;52.064;4.920;2023-02-07T04:44:22;28.83;;;16.33;;
42702;SDS011;28341;52.064;4.920;2023-02-07T04:46:27;26.47;;;14.27;;
42702;SDS011;28341;52.064;4.920;2023-02-07T04:48:32;30.10;;;15.83;;
42702;SDS011;28341;52.064;4.920;2023-02-07T04:50:37;35.20;;;17.73;;
42702;SDS011;28341;52.064;4.920;2023-02-07T04:52:41;29.83;;;18.37;;
42702;SDS011;28341;52.064;4.920;2023-02-07T04:54:46;43.80;;;19.30;;
42702;SDS011;28341;52.064;4.920;2023-02-07T04:56:50;46.00;;;18.47;;
42702;SDS011;28341;52.064;4.920;2023-02-07T04:58:56;43.90;;;18.63;;
42702;SDS011;28341;52.064;4.920;2023-02-07T05:01:03;31.13;;;18.27;;
42702;SDS011;28341;52.064;4.920;2023-02-07T05:03:07;31.17;;;18.23;;
42702;SDS011;28341;52.064;4.920;2023-02-07T05:05:12;35.37;;;19.93;;
42702;SDS011;28341;52.064;4.920;2023-02-07T05:07:16;41.37;;;22.43;;
42702;SDS011;28341;52.064;4.920;2023-02-07T05:09:21;37.50;;;21.53;;
42702;SDS011;28341;52.064;4.920;2023-02-07T05:11:26;34.73;;;19.13;;
42702;SDS011;28341;52.064;4.920;2023-02-07T05:13:30;38.27;;;21.43;;
42702;SDS011;28341;52.064;4.920;2023-02-07T05:15:35;35.67;;;19.97;;
42702;SDS011;28341;52.064;4.920;2023-02-07T05:17:42;32.60;;;19.83;;
42702;SDS011;28341;52.064;4.920;2023-02-07T05:19:47;30.70;;;20.17;;
42702;SDS011;28341;52.064;4.920;2023-02-07T05:21:51;43.83;;;21.43;;
42702;SDS011;28341;52.064;4.920;2023-02-07T05:23:56;35.30;;;20.97;;
42702;SDS011;28341;52.064;4.920;2023-02-07T05:26:01;37.40;;;21.10;;
42702;SDS011;28341;52.064;4.920;2023-02-07T05:28:06;41.70;;;21.23;;
42702;SDS011;28341;52.064;4.920;2023-02-07T05:30:10;34.13;;;19.87;;
42702;SDS011;28341;52.064;4.920;2023-02-07T05:32:16;31.90;;;19.33;;
42702;SDS011;28341;52.064;4.920;2023-02-07T05:34:35;35.50;;;21.13;;
42702;SDS011;28341;52.064;4.920;2023-02-07T05:36:40;37.83;;;22.03;;
42702;SDS011;28341;52.064;4.920;2023-02-07T05:38:44;48.07;;;23.13;;
42702;SDS011;28341;52.064;4.920;2023-02-07T05:40:49;40.23;;;23.50;;
42702;SDS011;28341;52.064;4.920;2023-02-07T05:42:53;46.20;;;22.83;;
42702;SDS011;28341;52.064;4.920;2023-02-07T05:44:58;43.57;;;23.77;;
42702;SDS011;28341;52.064;4.920;2023-02-07T05:47:02;55.63;;;26.30;;
42702;SDS011;28341;52.064;4.920;2023-02-07T05:49:07;48.60;;;24.87;;
42702;SDS011;28341;52.064;4.920;2023-02-07T05:51:14;43.93;;;25.60;;
42702;SDS011;28341;52.064;4.920;2023-02-07T05:53:19;47.77;;;23.77;;
42702;SDS011;28341;52.064;4.920;2023-02-07T05:55:23;49.27;;;24.53;;
42702;SDS011;28341;52.064;4.920;2023-02-07T05:57:28;56.20;;;25.17;;
42702;SDS011;28341;52.064;4.920;2023-02-07T05:59:32;46.73;;;23.40;;
42702;SDS011;28341;52.064;4.920;2023-02-07T06:01:37;46.37;;;23.87;;
42702;SDS011;28341;52.064;4.920;2023-02-07T06:03:41;51.80;;;24.50;;
42702;SDS011;28341;52.064;4.920;2023-02-07T06:05:46;58.70;;;27.23;;
42702;SDS011;28341;52.064;4.920;2023-02-07T06:07:53;62.80;;;26.73;;
42702;SDS011;28341;52.064;4.920;2023-02-07T06:09:58;65.37;;;29.90;;
42702;SDS011;28341;52.064;4.920;2023-02-07T06:12:02;56.47;;;27.63;;
42702;SDS011;28341;52.064;4.920;2023-02-07T06:14:07;58.27;;;26.80;;
42702;SDS011;28341;52.064;4.920;2023-02-07T06:16:12;58.97;;;27.80;;
42702;SDS011;28341;52.064;4.920;2023-02-07T06:18:16;51.07;;;27.63;;
42702;SDS011;28341;52.064;4.920;2023-02-07T06:20:21;67.97;;;27.73;;
42702;SDS011;28341;52.064;4.920;2023-02-07T06:22:26;60.03;;;29.10;;
42702;SDS011;28341;52.064;4.920;2023-02-07T06:24:33;57.30;;;27.33;;
42702;SDS011;28341;52.064;4.920;2023-02-07T06:26:37;57.90;;;28.83;;
42702;SDS011;28341;52.064;4.920;2023-02-07T06:28:42;58.80;;;28.50;;
42702;SDS011;28341;52.064;4.920;2023-02-07T06:30:46;70.33;;;29.23;;
42702;SDS011;28341;52.064;4.920;2023-02-07T06:32:53;70.60;;;29.00;;
42702;SDS011;28341;52.064;4.920;2023-02-07T06:34:58;62.77;;;28.93;;
42702;SDS011;28341;52.064;4.920;2023-02-07T06:37:03;68.00;;;32.63;;
42702;SDS011;28341;52.064;4.920;2023-02-07T06:39:07;62.00;;;31.70;;
42702;SDS011;28341;52.064;4.920;2023-02-07T06:41:14;74.40;;;32.37;;
42702;SDS011;28341;52.064;4.920;2023-02-07T06:43:19;73.60;;;32.47;;
42702;SDS011;28341;52.064;4.920;2023-02-07T06:45:23;66.23;;;30.90;;
42702;SDS011;28341;52.064;4.920;2023-02-07T06:47:28;69.63;;;31.47;;
42702;SDS011;28341;52.064;4.920;2023-02-07T06:49:33;125.43;;;76.73;;
42702;SDS011;28341;52.064;4.920;2023-02-07T06:51:38;90.33;;;44.33;;
42702;SDS011;28341;52.064;4.920;2023-02-07T06:53:42;80.70;;;40.17;;
42702;SDS011;28341;52.064;4.920;2023-02-07T06:55:47;74.60;;;34.00;;
42702;SDS011;28341;52.064;4.920;2023-02-07T06:57:54;87.90;;;41.07;;
42702;SDS011;28341;52.064;4.920;2023-02-07T06:59:59;75.33;;;34.03;;
42702;SDS011;28341;52.064;4.920;2023-02-07T07:02:04;71.93;;;35.43;;
42702;SDS011;28341;52.064;4.920;2023-02-07T07:04:09;78.23;;;35.10;;
42702;SDS011;28341;52.064;4.920;2023-02-07T07:06:13;69.17;;;30.77;;
42702;SDS011;28341;52.064;4.920;2023-02-07T07:08:18;68.53;;;32.70;;
42702;SDS011;28341;52.064;4.920;2023-02-07T07:10:22;70.10;;;31.23;;
42702;SDS011;28341;52.064;4.920;2023-02-07T07:12:27;77.47;;;32.97;;
42702;SDS011;28341;52.064;4.920;2023-02-07T07:14:34;76.77;;;34.37;;
42702;SDS011;28341;52.064;4.920;2023-02-07T07:16:39;74.80;;;34.40;;
42702;SDS011;28341;52.064;4.920;2023-02-07T07:18:43;77.47;;;32.87;;
42702;SDS011;28341;52.064;4.920;2023-02-07T07:20:51;72.10;;;32.83;;
42702;SDS011;28341;52.064;4.920;2023-02-07T07:22:56;71.37;;;34.80;;
42702;SDS011;28341;52.064;4.920;2023-02-07T07:25:00;71.60;;;33.00;;
42702;SDS011;28341;52.064;4.920;2023-02-07T07:27:05;92.77;;;42.43;;
42702;SDS011;28341;52.064;4.920;2023-02-07T07:29:09;80.97;;;42.63;;
42702;SDS011;28341;52.064;4.920;2023-02-07T07:31:16;89.97;;;40.03;;
42702;SDS011;28341;52.064;4.920;2023-02-07T07:33:21;87.23;;;38.53;;
42702;SDS011;28341;52.064;4.920;2023-02-07T07:35:26;75.57;;;35.90;;
42702;SDS011;28341;52.064;4.920;2023-02-07T07:37:30;76.30;;;35.10;;
42702;SDS011;28341;52.064;4.920;2023-02-07T07:39:36;74.13;;;33.77;;
42702;SDS011;28341;52.064;4.920;2023-02-07T07:41:41;64.93;;;31.93;;
42702;SDS011;28341;52.064;4.920;2023-02-07T07:43:52;70.60;;;33.27;;
42702;SDS011;28341;52.064;4.920;2023-02-07T07:45:57;73.90;;;33.83;;
42702;SDS011;28341;52.064;4.920;2023-02-07T07:48:04;72.03;;;34.20;;
42702;SDS011;28341;52.064;4.920;2023-02-07T07:50:09;72.33;;;33.70;;
42702;SDS011;28341;52.064;4.920;2023-02-07T07:52:14;75.13;;;34.77;;
42702;SDS011;28341;52.064;4.920;2023-02-07T07:54:18;76.83;;;34.60;;
42702;SDS011;28341;52.064;4.920;2023-02-07T07:56:23;76.30;;;37.37;;
42702;SDS011;28341;52.064;4.920;2023-02-07T07:58:28;73.80;;;35.00;;
42702;SDS011;28341;52.064;4.920;2023-02-07T08:00:33;78.53;;;36.83;;
42702;SDS011;28341;52.064;4.920;2023-02-07T08:02:37;78.87;;;35.60;;
42702;SDS011;28341;52.064;4.920;2023-02-07T08:04:44;76.63;;;37.10;;
42702;SDS011;28341;52.064;4.920;2023-02-07T08:06:49;74.27;;;34.93;;
42702;SDS011;28341;52.064;4.920;2023-02-07T08:08:53;76.30;;;35.10;;
42702;SDS011;28341;52.064;4.920;2023-02-07T08:10:59;75.13;;;35.03;;
42702;SDS011;28341;52.064;4.920;2023-02-07T08:13:04;71.20;;;34.47;;
42702;SDS011;28341;52.064;4.920;2023-02-07T08:15:09;76.23;;;35.63;;
42702;SDS011;28341;52.064;4.920;2023-02-07T08:17:14;69.40;;;35.67;;
42702;SDS011;28341;52.064;4.920;2023-02-07T08:19:19;80.23;;;37.27;;
42702;SDS011;28341;52.064;4.920;2023-02-07T08:21:27;79.53;;;35.77;;
42702;SDS011;28341;52.064;4.920;2023-02-07T08:23:32;75.03;;;37.10;;
42702;SDS011;28341;52.064;4.920;2023-02-07T08:25:37;84.70;;;38.03;;
42702;SDS011;28341;52.064;4.920;2023-02-07T08:27:41;73.73;;;36.40;;
42702;SDS011;28341;52.064;4.920;2023-02-07T08:29:46;74.43;;;36.83;;
42702;SDS011;28341;52.064;4.920;2023-02-07T08:31:50;86.10;;;38.20;;
42702;SDS011;28341;52.064;4.920;2023-02-07T08:33:54;83.27;;;39.27;;
42702;SDS011;28341;52.064;4.920;2023-02-07T08:35:58;83.53;;;39.00;;
42702;SDS011;28341;52.064;4.920;2023-02-07T08:38:09;86.57;;;39.70;;
42702;SDS011;28341;52.064;4.920;2023-02-07T08:40:14;91.80;;;41.23;;
42702;SDS011;28341;52.064;4.920;2023-02-07T08:42:19;87.80;;;43.70;;
42702;SDS011;28341;52.064;4.920;2023-02-07T08:44:23;88.50;;;43.27;;
42702;SDS011;28341;52.064;4.920;2023-02-07T08:46:28;92.83;;;41.23;;
42702;SDS011;28341;52.064;4.920;2023-02-07T08:48:32;95.17;;;42.67;;
42702;SDS011;28341;52.064;4.920;2023-02-07T08:50:37;87.37;;;40.07;;
42702;SDS011;28341;52.064;4.920;2023-02-07T08:52:41;98.80;;;43.53;;
42702;SDS011;28341;52.064;4.920;2023-02-07T08:54:48;87.60;;;41.47;;
42702;SDS011;28341;52.064;4.920;2023-02-07T08:56:52;82.40;;;42.40;;
42702;SDS011;28341;52.064;4.920;2023-02-07T08:58:57;83.47;;;42.37;;
42702;SDS011;28341;52.064;4.920;2023-02-07T09:01:01;85.53;;;40.90;;
42702;SDS011;28341;52.064;4.920;2023-02-07T09:03:10;73.50;;;39.73;;
42702;SDS011;28341;52.064;4.920;2023-02-07T09:05:14;78.23;;;40.80;;
42702;SDS011;28341;52.064;4.920;2023-02-07T09:07:19;102.73;;;40.13;;
42702;SDS011;28341;52.064;4.920;2023-02-07T09:09:23;73.10;;;39.83;;
42702;SDS011;28341;52.064;4.920;2023-02-07T09:11:30;72.63;;;39.27;;
42702;SDS011;28341;52.064;4.920;2023-02-07T09:13:35;77.47;;;40.07;;
42702;SDS011;28341;52.064;4.920;2023-02-07T09:15:39;85.17;;;41.93;;
42702;SDS011;28341;52.064;4.920;2023-02-07T09:17:43;69.93;;;39.45;;
42702;SDS011;28341;52.064;4.920;2023-02-07T09:19:48;70.68;;;40.00;;
42702;SDS011;28341;52.064;4.920;2023-02-07T09:21:52;78.15;;;37.28;;
42702;SDS011;28341;52.064;4.920;2023-02-07T09:23:56;76.20;;;38.30;;
42702;SDS011;28341;52.064;4.920;2023-02-07T09:26:01;72.47;;;38.70;;
42702;SDS011;28341;52.064;4.920;2023-02-07T09:28:11;84.50;;;37.90;;
42702;SDS011;28341;52.064;4.920;2023-02-07T09:30:15;76.47;;;38.03;;
42702;SDS011;28341;52.064;4.920;2023-02-07T09:32:20;64.10;;;36.60;;
42702;SDS011;28341;52.064;4.920;2023-02-07T09:34:24;71.55;;;37.58;;
42702;SDS011;28341;52.064;4.920;2023-02-07T09:36:29;64.10;;;36.00;;
42702;SDS011;28341;52.064;4.920;2023-02-07T09:38:34;61.38;;;35.25;;
42702;SDS011;28341;52.064;4.920;2023-02-07T09:40:38;71.78;;;32.83;;
42702;SDS011;28341;52.064;4.920;2023-02-07T09:42:46;59.65;;;33.00;;
42702;SDS011;28341;52.064;4.920;2023-02-07T09:45:00;50.57;;;31.30;;
42702;SDS011;28341;52.064;4.920;2023-02-07T09:47:10;50.75;;;30.55;;
42702;SDS011;28341;52.064;4.920;2023-02-07T09:49:21;51.05;;;31.75;;
42702;SDS011;28341;52.064;4.920;2023-02-07T09:51:34;62.37;;;33.40;;
42702;SDS011;28341;52.064;4.920;2023-02-07T09:53:41;50.63;;;31.15;;
42702;SDS011;28341;52.064;4.920;2023-02-07T09:55:49;52.10;;;30.95;;
42702;SDS011;28341;52.064;4.920;2023-02-07T09:57:56;46.33;;;29.48;;
42702;SDS011;28341;52.064;4.920;2023-02-07T10:00:14;51.42;;;29.95;;
42702;SDS011;28341;52.064;4.920;2023-02-07T10:02:26;46.50;;;28.30;;
42702;SDS011;28341;52.064;4.920;2023-02-07T10:04:35;44.17;;;29.37;;
42702;SDS011;28341;52.064;4.920;2023-02-07T10:06:42;47.10;;;29.08;;
42702;SDS011;28341;52.064;4.920;2023-02-07T10:08:50;42.00;;;28.60;;
42702;SDS011;28341;52.064;4.920;2023-02-07T10:11:02;50.38;;;27.38;;
42702;SDS011;28341;52.064;4.920;2023-02-07T10:13:21;41.85;;;27.08;;
42702;SDS011;28341;52.064;4.920;2023-02-07T10:15:46;76.55;;;27.23;;
42702;SDS011;28341;52.064;4.920;2023-02-07T10:18:05;45.20;;;25.33;;
42702;SDS011;28341;52.064;4.920;2023-02-07T10:20:25;43.83;;;25.98;;
42702;SDS011;28341;52.064;4.920;2023-02-07T10:22:35;39.15;;;24.58;;
42702;SDS011;28341;52.064;4.920;2023-02-07T10:27:20;47.38;;;25.50;;
42702;SDS011;28341;52.064;4.920;2023-02-07T10:29:37;40.30;;;25.83;;
42702;SDS011;28341;52.064;4.920;2023-02-07T10:31:55;39.13;;;25.60;;
42702;SDS011;28341;52.064;4.920;2023-02-07T10:34:09;41.05;;;24.63;;
42702;SDS011;28341;52.064;4.920;2023-02-07T10:36:16;39.42;;;25.45;;
42702;SDS011;28341;52.064;4.920;2023-02-07T10:38:22;36.63;;;25.73;;
42702;SDS011;28341;52.064;4.920;2023-02-07T10:40:33;38.55;;;25.55;;
42702;SDS011;28341;52.064;4.920;2023-02-07T10:42:42;48.22;;;24.45;;
42702;SDS011;28341;52.064;4.920;2023-02-07T10:44:52;40.78;;;22.63;;
42702;SDS011;28341;52.064;4.920;2023-02-07T10:47:00;34.70;;;23.13;;
42702;SDS011;28341;52.064;4.920;2023-02-07T10:49:08;35.25;;;24.70;;
42702;SDS011;28341;52.064;4.920;2023-02-07T10:51:24;36.05;;;24.75;;
42702;SDS011;28341;52.064;4.920;2023-02-07T10:53:41;35.22;;;23.67;;
42702;SDS011;28341;52.064;4.920;2023-02-07T10:55:47;33.45;;;23.40;;
42702;SDS011;28341;52.064;4.920;2023-02-07T10:57:52;35.53;;;24.67;;
42702;SDS011;28341;52.064;4.920;2023-02-07T10:59:58;35.83;;;24.27;;
42702;SDS011;28341;52.064;4.920;2023-02-07T11:04:51;35.17;;;23.10;;
42702;SDS011;28341;52.064;4.920;2023-02-07T11:06:58;31.50;;;22.70;;
42702;SDS011;28341;52.064;4.920;2023-02-07T11:09:11;37.60;;;23.75;;
42702;SDS011;28341;52.064;4.920;2023-02-07T11:11:24;40.25;;;24.40;;
42702;SDS011;28341;52.064;4.920;2023-02-07T11:13:35;34.35;;;23.75;;
42702;SDS011;28341;52.064;4.920;2023-02-07T11:15:53;35.67;;;23.75;;
42702;SDS011;28341;52.064;4.920;2023-02-07T11:18:03;35.25;;;25.15;;
42702;SDS011;28341;52.064;4.920;2023-02-07T11:20:10;34.85;;;23.55;;
42702;SDS011;28341;52.064;4.920;2023-02-07T11:22:22;34.45;;;23.80;;
42702;SDS011;28341;52.064;4.920;2023-02-07T11:24:28;37.08;;;24.90;;
42702;SDS011;28341;52.064;4.920;2023-02-07T11:26:34;33.25;;;23.33;;
42702;SDS011;28341;52.064;4.920;2023-02-07T11:28:50;35.80;;;24.50;;
42702;SDS011;28341;52.064;4.920;2023-02-07T11:30:57;35.92;;;24.60;;
42702;SDS011;28341;52.064;4.920;2023-02-07T11:33:09;36.42;;;23.90;;
42702;SDS011;28341;52.064;4.920;2023-02-07T11:35:23;34.50;;;24.00;;
42702;SDS011;28341;52.064;4.920;2023-02-07T11:37:28;34.20;;;23.52;;
42702;SDS011;28341;52.064;4.920;2023-02-07T11:39:34;34.03;;;24.15;;
42702;SDS011;28341;52.064;4.920;2023-02-07T11:41:39;30.27;;;21.27;;
42702;SDS011;28341;52.064;4.920;2023-02-07T11:43:53;33.00;;;23.67;;
42702;SDS011;28341;52.064;4.920;2023-02-07T11:46:02;31.95;;;22.15;;
42702;SDS011;28341;52.064;4.920;2023-02-07T11:48:17;32.00;;;21.98;;
42702;SDS011;28341;52.064;4.920;2023-02-07T11:50:25;35.92;;;23.48;;
42702;SDS011;28341;52.064;4.920;2023-02-07T11:52:31;33.60;;;24.58;;
42702;SDS011;28341;52.064;4.920;2023-02-07T11:54:37;36.30;;;23.55;;
42702;SDS011;28341;52.064;4.920;2023-02-07T11:56:42;33.05;;;22.33;;
42702;SDS011;28341;52.064;4.920;2023-02-07T11:58:52;32.92;;;23.52;;
42702;SDS011;28341;52.064;4.920;2023-02-07T12:00:58;34.38;;;22.95;;
42702;SDS011;28341;52.064;4.920;2023-02-07T12:03:05;32.10;;;23.63;;
42702;SDS011;28341;52.064;4.920;2023-02-07T12:05:26;34.75;;;22.35;;
42702;SDS011;28341;52.064;4.920;2023-02-07T12:07:33;33.88;;;22.70;;
42702;SDS011;28341;52.064;4.920;2023-02-07T12:09:43;34.92;;;24.42;;
42702;SDS011;28341;52.064;4.920;2023-02-07T12:11:50;31.88;;;23.52;;
42702;SDS011;28341;52.064;4.920;2023-02-07T12:13:55;34.85;;;23.67;;
42702;SDS011;28341;52.064;4.920;2023-02-07T12:16:06;38.50;;;24.27;;
42702;SDS011;28341;52.064;4.920;2023-02-07T12:18:15;37.17;;;24.15;;
42702;SDS011;28341;52.064;4.920;2023-02-07T12:20:30;38.47;;;24.10;;
42702;SDS011;28341;52.064;4.920;2023-02-07T12:22:39;35.97;;;22.65;;
42702;SDS011;28341;52.064;4.920;2023-02-07T12:24:47;35.45;;;23.65;;
42702;SDS011;28341;52.064;4.920;2023-02-07T12:26:57;33.83;;;23.63;;
42702;SDS011;28341;52.064;4.920;2023-02-07T12:29:09;35.00;;;23.45;;
42702;SDS011;28341;52.064;4.920;2023-02-07T12:31:26;32.75;;;22.23;;
42702;SDS011;28341;52.064;4.920;2023-02-07T12:33:38;32.15;;;22.50;;
42702;SDS011;28341;52.064;4.920;2023-02-07T12:35:52;33.35;;;22.20;;
42702;SDS011;28341;52.064;4.920;2023-02-07T12:38:04;30.73;;;21.40;;
42702;SDS011;28341;52.064;4.920;2023-02-07T12:40:21;33.03;;;21.88;;
42702;SDS011;28341;52.064;4.920;2023-02-07T12:42:37;33.45;;;22.75;;
42702;SDS011;28341;52.064;4.920;2023-02-07T12:44:45;31.67;;;21.52;;
42702;SDS011;28341;52.064;4.920;2023-02-07T12:46:57;34.47;;;20.88;;